createdAt,value
2023-01-06T00:00:19.547Z,6.05
2023-01-06T00:10:54.393Z,6.08
2023-01-06T00:21:18.567Z,6.05
2023-01-06T00:31:42.762Z,6.00
2023-01-06T00:42:07.205Z,5.99
2023-01-06T00:52:31.542Z,5.83
2023-01-06T01:02:55.989Z,5.78
2023-01-06T01:13:20.190Z,5.86
2023-01-06T01:23:44.386Z,5.97
2023-01-06T01:34:09.143Z,6.02
2023-01-06T01:44:56.333Z,5.89
2023-01-06T01:55:21.444Z,5.75
2023-01-06T02:05:52.599Z,5.69
2023-01-06T02:16:23.512Z,5.65
2023-01-06T02:27:31.823Z,5.60
2023-01-06T02:38:07.461Z,5.48
2023-01-06T02:48:41.470Z,5.46
2023-01-06T02:59:09.406Z,5.40
2023-01-06T03:09:37.707Z,5.42
2023-01-06T03:20:02.167Z,5.42
2023-01-06T03:30:36.870Z,5.41
2023-01-06T03:41:08.965Z,5.39
2023-01-06T03:51:47.487Z,5.28
2023-01-06T04:02:12.214Z,5.20
2023-01-06T04:12:39.294Z,5.24
2023-01-06T04:23:03.498Z,5.28
2023-01-06T04:33:28.404Z,5.26
2023-01-06T04:43:52.596Z,5.12
2023-01-06T04:54:17.536Z,5.10
2023-01-06T05:04:47.646Z,5.09
2023-01-06T05:15:12.884Z,5.16
2023-01-06T05:25:37.161Z,5.10
2023-01-06T05:36:02.907Z,5.01
2023-01-06T05:46:27.098Z,4.95
2023-01-06T05:56:51.288Z,5.01
2023-01-06T06:07:15.524Z,5.01
2023-01-06T06:17:39.863Z,5.09
2023-01-06T06:28:04.058Z,5.20
2023-01-06T06:38:28.507Z,5.35
2023-01-06T06:48:52.748Z,5.51
2023-01-06T06:59:17.107Z,5.47
2023-01-06T07:09:41.518Z,5.40
2023-01-06T07:20:07.639Z,5.47
2023-01-06T07:30:32.084Z,5.27
2023-01-06T07:41:00.428Z,5.35
2023-01-06T07:51:24.758Z,5.33
2023-01-06T08:01:49.170Z,5.32
2023-01-06T08:12:13.514Z,5.23
2023-01-06T08:22:38.088Z,5.11
2023-01-06T08:33:02.323Z,5.18
2023-01-06T08:43:27.529Z,4.99
2023-01-06T08:53:52.711Z,4.74
2023-01-06T09:04:16.880Z,4.57
2023-01-06T09:14:41.183Z,4.51
2023-01-06T09:25:06.829Z,4.54
2023-01-06T09:35:31.146Z,4.63
2023-01-06T09:46:01.118Z,4.68
2023-01-06T09:56:26.037Z,4.70
2023-01-06T10:07:00.387Z,4.77
2023-01-06T10:17:53.449Z,4.87
2023-01-06T10:28:25.357Z,5.06
2023-01-06T10:38:52.272Z,5.16
2023-01-06T10:49:18.798Z,5.16
2023-01-06T11:00:13.702Z,5.26
2023-01-06T11:10:41.782Z,5.40
2023-01-06T11:21:10.521Z,5.59
2023-01-06T11:31:34.888Z,5.84
2023-01-06T11:42:04.921Z,5.99
2023-01-06T11:52:31.131Z,6.02
2023-01-06T12:03:06.866Z,6.12
2023-01-06T12:13:39.831Z,6.16
2023-01-06T12:24:15.365Z,6.23
2023-01-06T12:34:47.885Z,6.30
2023-01-06T12:45:15.933Z,6.36
2023-01-06T12:55:48.430Z,6.43
2023-01-06T13:06:25.942Z,6.41
2023-01-06T13:16:56.393Z,6.45
2023-01-06T13:27:39.386Z,6.49
2023-01-06T13:38:18.334Z,6.57
2023-01-06T13:48:46.818Z,6.59
2023-01-06T13:59:24.657Z,6.62
2023-01-06T14:09:50.243Z,6.65
2023-01-06T14:20:29.680Z,6.69
2023-01-06T14:31:46.406Z,6.71
2023-01-06T14:42:18.565Z,6.76
2023-01-06T14:52:49.504Z,6.78
2023-01-06T15:03:22.372Z,6.80
2023-01-06T15:13:46.798Z,6.85
2023-01-06T15:24:19.703Z,6.86
2023-01-06T15:34:46.563Z,6.83
2023-01-06T15:45:25.554Z,6.79
2023-01-06T15:55:52.623Z,6.84
2023-01-06T16:06:26.306Z,6.87
2023-01-06T16:16:50.797Z,6.86
2023-01-06T16:27:15.051Z,6.89
2023-01-06T16:37:39.486Z,6.95
2023-01-06T16:48:03.892Z,7.02
2023-01-06T16:58:29.883Z,7.13
2023-01-06T17:08:56.723Z,7.14
2023-01-06T17:19:24.780Z,7.13
2023-01-06T17:29:50.053Z,7.22
2023-01-06T17:40:17.671Z,7.31
2023-01-06T17:50:45.787Z,7.31
2023-01-06T18:01:14.226Z,7.31
2023-01-06T18:11:38.852Z,7.39
2023-01-06T18:22:09.816Z,7.39
2023-01-06T18:32:36.111Z,7.40
2023-01-06T18:43:05.939Z,7.44
2023-01-06T18:53:32.853Z,7.49
2023-01-06T19:04:04.168Z,7.57
2023-01-06T19:14:32.645Z,7.63
2023-01-06T19:24:57.396Z,7.72
2023-01-06T19:35:25.783Z,7.74
2023-01-06T19:45:49.986Z,7.78
2023-01-06T19:56:20.018Z,7.87
2023-01-06T20:06:44.456Z,7.88
2023-01-06T20:17:08.760Z,8.00
2023-01-06T20:27:33.814Z,8.03
2023-01-06T20:37:58.008Z,7.95
2023-01-06T20:48:22.309Z,8.02
2023-01-06T20:58:46.481Z,8.10
2023-01-06T21:09:10.696Z,8.16
2023-01-06T21:19:34.999Z,8.12
2023-01-06T21:29:59.180Z,8.10
2023-01-06T21:40:23.418Z,8.18
2023-01-06T21:50:47.636Z,8.21
2023-01-06T22:01:11.977Z,8.40
2023-01-06T22:11:37.907Z,8.54
2023-01-06T22:22:02.969Z,8.78
2023-01-06T22:32:27.833Z,8.96
2023-01-06T22:42:52.035Z,8.92
2023-01-06T22:53:16.225Z,8.56
2023-01-06T23:03:40.617Z,8.42
2023-01-06T23:14:04.846Z,8.44
2023-01-06T23:24:29.250Z,8.48
2023-01-06T23:34:53.465Z,8.65
2023-01-06T23:45:17.807Z,8.86
2023-01-06T23:55:42.020Z,8.83
